sensor_id;sensor_type;location;lat;lon;timestamp;temperature;humidity
21348;DHT22;66030;53.582;9.746;2024-02-16T00:01:10;19.90;68.70
21348;DHT22;66030;53.582;9.746;2024-02-16T00:03:38;19.90;68.80
21348;DHT22;66030;53.582;9.746;2024-02-16T00:06:06;19.90;68.60
21348;DHT22;66030;53.582;9.746;2024-02-16T00:08:36;19.90;68.70
21348;DHT22;66030;53.582;9.746;2024-02-16T00:11:05;19.80;68.80
21348;DHT22;66030;53.582;9.746;2024-02-16T00:13:33;19.80;68.80
21348;DHT22;66030;53.582;9.746;2024-02-16T00:16:01;19.80;68.80
21348;DHT22;66030;53.582;9.746;2024-02-16T00:18:29;19.80;68.80
21348;DHT22;66030;53.582;9.746;2024-02-16T00:20:57;19.80;68.80
21348;DHT22;66030;53.582;9.746;2024-02-16T00:23:25;19.80;68.80
21348;DHT22;66030;53.582;9.746;2024-02-16T00:25:54;19.70;68.80
21348;DHT22;66030;53.582;9.746;2024-02-16T00:28:22;19.70;68.80
21348;DHT22;66030;53.582;9.746;2024-02-16T00:30:50;19.70;68.80
21348;DHT22;66030;53.582;9.746;2024-02-16T00:33:17;19.70;68.70
21348;DHT22;66030;53.582;9.746;2024-02-16T00:35:45;19.70;68.80
21348;DHT22;66030;53.582;9.746;2024-02-16T00:38:15;19.70;68.80
21348;DHT22;66030;53.582;9.746;2024-02-16T00:40:43;19.60;68.80
21348;DHT22;66030;53.582;9.746;2024-02-16T00:43:13;19.60;68.80
21348;DHT22;66030;53.582;9.746;2024-02-16T00:45:41;19.60;68.80
21348;DHT22;66030;53.582;9.746;2024-02-16T00:48:11;19.60;68.80
21348;DHT22;66030;53.582;9.746;2024-02-16T00:50:39;19.60;68.80
21348;DHT22;66030;53.582;9.746;2024-02-16T00:53:09;19.60;68.80
21348;DHT22;66030;53.582;9.746;2024-02-16T00:55:37;19.60;68.80
21348;DHT22;66030;53.582;9.746;2024-02-16T00:58:08;19.50;68.80
21348;DHT22;66030;53.582;9.746;2024-02-16T01:00:37;19.50;68.70
21348;DHT22;66030;53.582;9.746;2024-02-16T01:03:05;19.50;68.80
21348;DHT22;66030;53.582;9.746;2024-02-16T01:05:33;19.50;68.80
21348;DHT22;66030;53.582;9.746;2024-02-16T01:08:02;19.50;68.80
21348;DHT22;66030;53.582;9.746;2024-02-16T01:10:30;19.50;68.80
21348;DHT22;66030;53.582;9.746;2024-02-16T01:12:58;19.50;68.70
21348;DHT22;66030;53.582;9.746;2024-02-16T01:15:26;19.50;68.70
21348;DHT22;66030;53.582;9.746;2024-02-16T01:17:55;19.50;68.70
21348;DHT22;66030;53.582;9.746;2024-02-16T01:20:23;19.50;68.70
21348;DHT22;66030;53.582;9.746;2024-02-16T01:22:51;19.50;68.70
21348;DHT22;66030;53.582;9.746;2024-02-16T01:25:19;19.40;68.70
21348;DHT22;66030;53.582;9.746;2024-02-16T01:27:47;19.40;68.70
21348;DHT22;66030;53.582;9.746;2024-02-16T01:30:15;19.40;68.70
21348;DHT22;66030;53.582;9.746;2024-02-16T01:32:45;19.40;68.70
21348;DHT22;66030;53.582;9.746;2024-02-16T01:35:15;19.40;68.70
21348;DHT22;66030;53.582;9.746;2024-02-16T01:37:43;19.40;68.70
21348;DHT22;66030;53.582;9.746;2024-02-16T01:40:11;19.40;68.60
21348;DHT22;66030;53.582;9.746;2024-02-16T01:42:41;19.40;68.70
21348;DHT22;66030;53.582;9.746;2024-02-16T01:45:09;19.30;68.70
21348;DHT22;66030;53.582;9.746;2024-02-16T01:47:38;19.30;68.70
21348;DHT22;66030;53.582;9.746;2024-02-16T01:50:07;19.30;68.70
21348;DHT22;66030;53.582;9.746;2024-02-16T01:52:37;19.30;68.70
21348;DHT22;66030;53.582;9.746;2024-02-16T01:55:06;19.30;68.70
21348;DHT22;66030;53.582;9.746;2024-02-16T01:57:36;19.30;68.70
21348;DHT22;66030;53.582;9.746;2024-02-16T02:00:04;19.30;68.70
21348;DHT22;66030;53.582;9.746;2024-02-16T02:02:34;19.30;68.70
21348;DHT22;66030;53.582;9.746;2024-02-16T02:05:02;19.30;68.70
21348;DHT22;66030;53.582;9.746;2024-02-16T02:07:31;19.30;68.70
21348;DHT22;66030;53.582;9.746;2024-02-16T02:10:01;19.20;68.70
21348;DHT22;66030;53.582;9.746;2024-02-16T02:12:29;19.20;68.70
21348;DHT22;66030;53.582;9.746;2024-02-16T02:14:57;19.20;68.70
21348;DHT22;66030;53.582;9.746;2024-02-16T02:17:25;19.20;68.70
21348;DHT22;66030;53.582;9.746;2024-02-16T02:19:53;19.20;68.70
21348;DHT22;66030;53.582;9.746;2024-02-16T02:22:22;19.20;68.70
21348;DHT22;66030;53.582;9.746;2024-02-16T02:24:50;19.20;68.70
21348;DHT22;66030;53.582;9.746;2024-02-16T02:27:18;19.20;68.60
21348;DHT22;66030;53.582;9.746;2024-02-16T02:29:46;19.20;68.70
21348;DHT22;66030;53.582;9.746;2024-02-16T02:32:14;19.20;68.60
21348;DHT22;66030;53.582;9.746;2024-02-16T02:34:41;19.20;68.70
21348;DHT22;66030;53.582;9.746;2024-02-16T02:37:10;19.20;68.70
21348;DHT22;66030;53.582;9.746;2024-02-16T02:39:39;19.10;68.70
21348;DHT22;66030;53.582;9.746;2024-02-16T02:42:07;19.10;68.70
21348;DHT22;66030;53.582;9.746;2024-02-16T02:44:36;19.10;68.70
21348;DHT22;66030;53.582;9.746;2024-02-16T02:47:04;19.10;68.70
21348;DHT22;66030;53.582;9.746;2024-02-16T02:49:32;19.10;68.60
21348;DHT22;66030;53.582;9.746;2024-02-16T02:52:02;19.10;68.70
21348;DHT22;66030;53.582;9.746;2024-02-16T02:54:31;19.10;68.70
21348;DHT22;66030;53.582;9.746;2024-02-16T02:57:00;19.10;68.60
21348;DHT22;66030;53.582;9.746;2024-02-16T02:59:29;19.10;68.70
21348;DHT22;66030;53.582;9.746;2024-02-16T03:01:57;19.10;68.70
21348;DHT22;66030;53.582;9.746;2024-02-16T03:04:24;19.10;68.70
21348;DHT22;66030;53.582;9.746;2024-02-16T03:06:52;19.10;68.60
21348;DHT22;66030;53.582;9.746;2024-02-16T03:09:21;19.10;68.70
21348;DHT22;66030;53.582;9.746;2024-02-16T03:11:49;19.00;68.80
21348;DHT22;66030;53.582;9.746;2024-02-16T03:14:18;19.00;68.90
21348;DHT22;66030;53.582;9.746;2024-02-16T03:16:46;19.00;68.80
21348;DHT22;66030;53.582;9.746;2024-02-16T03:19:14;19.00;68.80
21348;DHT22;66030;53.582;9.746;2024-02-16T03:21:42;19.00;68.80
21348;DHT22;66030;53.582;9.746;2024-02-16T03:24:10;19.00;68.80
21348;DHT22;66030;53.582;9.746;2024-02-16T03:26:38;19.00;68.80
21348;DHT22;66030;53.582;9.746;2024-02-16T03:29:06;19.00;68.80
21348;DHT22;66030;53.582;9.746;2024-02-16T03:31:36;19.00;68.90
21348;DHT22;66030;53.582;9.746;2024-02-16T03:34:03;19.00;68.90
21348;DHT22;66030;53.582;9.746;2024-02-16T03:36:33;19.00;68.80
21348;DHT22;66030;53.582;9.746;2024-02-16T03:39:01;19.00;68.80
21348;DHT22;66030;53.582;9.746;2024-02-16T03:41:29;19.00;68.90
21348;DHT22;66030;53.582;9.746;2024-02-16T03:43:57;19.00;68.90
21348;DHT22;66030;53.582;9.746;2024-02-16T03:46:25;19.00;68.80
21348;DHT22;66030;53.582;9.746;2024-02-16T03:48:54;19.00;68.80
21348;DHT22;66030;53.582;9.746;2024-02-16T03:51:22;19.00;68.80
21348;DHT22;66030;53.582;9.746;2024-02-16T03:53:50;18.90;68.80
21348;DHT22;66030;53.582;9.746;2024-02-16T03:56:19;18.90;68.80
21348;DHT22;66030;53.582;9.746;2024-02-16T03:58:47;18.90;68.80
21348;DHT22;66030;53.582;9.746;2024-02-16T04:01:15;18.90;68.80
21348;DHT22;66030;53.582;9.746;2024-02-16T04:03:43;18.90;68.90
21348;DHT22;66030;53.582;9.746;2024-02-16T04:06:12;18.90;68.90
21348;DHT22;66030;53.582;9.746;2024-02-16T04:08:40;18.90;68.80
21348;DHT22;66030;53.582;9.746;2024-02-16T04:11:10;18.90;68.80
21348;DHT22;66030;53.582;9.746;2024-02-16T04:13:38;18.90;68.80
21348;DHT22;66030;53.582;9.746;2024-02-16T04:16:06;18.90;68.90
21348;DHT22;66030;53.582;9.746;2024-02-16T04:18:34;18.90;68.80
21348;DHT22;66030;53.582;9.746;2024-02-16T04:21:02;18.90;68.80
21348;DHT22;66030;53.582;9.746;2024-02-16T04:23:32;18.90;68.80
21348;DHT22;66030;53.582;9.746;2024-02-16T04:25:59;18.90;68.80
21348;DHT22;66030;53.582;9.746;2024-02-16T04:28:27;18.80;68.80
21348;DHT22;66030;53.582;9.746;2024-02-16T04:30:55;18.80;68.70
21348;DHT22;66030;53.582;9.746;2024-02-16T04:33:23;18.80;68.70
21348;DHT22;66030;53.582;9.746;2024-02-16T04:35:51;18.80;68.70
21348;DHT22;66030;53.582;9.746;2024-02-16T04:38:19;18.80;68.80
21348;DHT22;66030;53.582;9.746;2024-02-16T04:40:48;18.80;68.70
21348;DHT22;66030;53.582;9.746;2024-02-16T04:43:16;18.80;68.80
21348;DHT22;66030;53.582;9.746;2024-02-16T04:45:45;18.80;68.80
21348;DHT22;66030;53.582;9.746;2024-02-16T04:48:13;18.80;68.70
21348;DHT22;66030;53.582;9.746;2024-02-16T04:50:41;18.80;68.80
21348;DHT22;66030;53.582;9.746;2024-02-16T04:53:09;18.80;68.80
21348;DHT22;66030;53.582;9.746;2024-02-16T04:55:37;18.80;68.80
21348;DHT22;66030;53.582;9.746;2024-02-16T04:58:06;18.80;68.70
21348;DHT22;66030;53.582;9.746;2024-02-16T05:00:36;18.80;68.70
21348;DHT22;66030;53.582;9.746;2024-02-16T05:03:05;18.70;68.80
21348;DHT22;66030;53.582;9.746;2024-02-16T05:05:33;18.80;68.70
21348;DHT22;66030;53.582;9.746;2024-02-16T05:08:01;18.80;68.70
21348;DHT22;66030;53.582;9.746;2024-02-16T05:10:29;18.80;68.70
21348;DHT22;66030;53.582;9.746;2024-02-16T05:12:56;18.80;68.60
21348;DHT22;66030;53.582;9.746;2024-02-16T05:15:27;18.90;68.50
21348;DHT22;66030;53.582;9.746;2024-02-16T05:17:55;19.00;68.40
21348;DHT22;66030;53.582;9.746;2024-02-16T05:20:24;19.00;68.20
21348;DHT22;66030;53.582;9.746;2024-02-16T05:22:52;19.10;68.10
21348;DHT22;66030;53.582;9.746;2024-02-16T05:25:20;19.10;67.90
21348;DHT22;66030;53.582;9.746;2024-02-16T05:27:48;19.20;67.80
21348;DHT22;66030;53.582;9.746;2024-02-16T05:30:16;19.20;67.60
21348;DHT22;66030;53.582;9.746;2024-02-16T05:32:46;19.30;67.50
21348;DHT22;66030;53.582;9.746;2024-02-16T05:35:15;19.30;67.40
21348;DHT22;66030;53.582;9.746;2024-02-16T05:37:45;19.40;67.30
21348;DHT22;66030;53.582;9.746;2024-02-16T05:40:15;19.40;67.30
21348;DHT22;66030;53.582;9.746;2024-02-16T05:42:49;19.50;67.20
21348;DHT22;66030;53.582;9.746;2024-02-16T05:45:17;19.50;67.00
21348;DHT22;66030;53.582;9.746;2024-02-16T05:47:46;19.50;67.00
21348;DHT22;66030;53.582;9.746;2024-02-16T05:50:15;19.50;66.90
21348;DHT22;66030;53.582;9.746;2024-02-16T05:52:43;19.60;66.80
21348;DHT22;66030;53.582;9.746;2024-02-16T05:55:11;19.60;66.80
21348;DHT22;66030;53.582;9.746;2024-02-16T05:57:40;19.60;66.90
21348;DHT22;66030;53.582;9.746;2024-02-16T06:00:09;19.60;67.10
21348;DHT22;66030;53.582;9.746;2024-02-16T06:02:37;19.60;68.00
21348;DHT22;66030;53.582;9.746;2024-02-16T06:05:07;19.60;69.30
21348;DHT22;66030;53.582;9.746;2024-02-16T06:07:35;19.60;70.30
21348;DHT22;66030;53.582;9.746;2024-02-16T06:10:05;19.60;70.70
21348;DHT22;66030;53.582;9.746;2024-02-16T06:12:38;19.60;70.90
21348;DHT22;66030;53.582;9.746;2024-02-16T06:15:07;19.60;71.00
21348;DHT22;66030;53.582;9.746;2024-02-16T06:17:35;19.60;70.90
21348;DHT22;66030;53.582;9.746;2024-02-16T06:20:05;19.60;70.90
21348;DHT22;66030;53.582;9.746;2024-02-16T06:22:37;19.60;70.80
21348;DHT22;66030;53.582;9.746;2024-02-16T06:25:06;19.70;70.80
21348;DHT22;66030;53.582;9.746;2024-02-16T06:27:34;19.70;70.70
21348;DHT22;66030;53.582;9.746;2024-02-16T06:30:02;19.70;70.80
21348;DHT22;66030;53.582;9.746;2024-02-16T06:32:31;19.80;70.80
21348;DHT22;66030;53.582;9.746;2024-02-16T06:34:59;19.80;70.80
21348;DHT22;66030;53.582;9.746;2024-02-16T06:37:27;19.80;70.50
21348;DHT22;66030;53.582;9.746;2024-02-16T06:39:56;19.80;69.90
21348;DHT22;66030;53.582;9.746;2024-02-16T06:42:24;19.80;70.60
21348;DHT22;66030;53.582;9.746;2024-02-16T06:44:55;19.70;70.10
21348;DHT22;66030;53.582;9.746;2024-02-16T06:47:23;19.70;70.20
21348;DHT22;66030;53.582;9.746;2024-02-16T06:49:52;19.70;70.50
21348;DHT22;66030;53.582;9.746;2024-02-16T06:52:21;19.70;70.80
21348;DHT22;66030;53.582;9.746;2024-02-16T06:54:49;19.80;70.80
21348;DHT22;66030;53.582;9.746;2024-02-16T06:57:19;19.80;70.70
21348;DHT22;66030;53.582;9.746;2024-02-16T06:59:47;19.80;70.60
21348;DHT22;66030;53.582;9.746;2024-02-16T07:02:15;19.80;70.50
21348;DHT22;66030;53.582;9.746;2024-02-16T07:04:44;19.80;70.30
21348;DHT22;66030;53.582;9.746;2024-02-16T07:07:13;19.80;70.20
21348;DHT22;66030;53.582;9.746;2024-02-16T07:09:41;19.80;70.10
21348;DHT22;66030;53.582;9.746;2024-02-16T07:12:09;19.80;70.10
21348;DHT22;66030;53.582;9.746;2024-02-16T07:14:40;19.80;70.00
21348;DHT22;66030;53.582;9.746;2024-02-16T07:17:08;19.80;69.90
21348;DHT22;66030;53.582;9.746;2024-02-16T07:19:36;19.80;69.90
21348;DHT22;66030;53.582;9.746;2024-02-16T07:22:05;19.80;69.80
21348;DHT22;66030;53.582;9.746;2024-02-16T07:24:34;19.80;69.90
21348;DHT22;66030;53.582;9.746;2024-02-16T07:27:02;19.80;69.90
21348;DHT22;66030;53.582;9.746;2024-02-16T07:29:30;19.80;69.90
21348;DHT22;66030;53.582;9.746;2024-02-16T07:31:59;19.90;69.90
21348;DHT22;66030;53.582;9.746;2024-02-16T07:34:27;19.90;69.90
21348;DHT22;66030;53.582;9.746;2024-02-16T07:36:55;19.90;69.80
21348;DHT22;66030;53.582;9.746;2024-02-16T07:39:24;19.90;69.70
21348;DHT22;66030;53.582;9.746;2024-02-16T07:41:52;19.90;69.60
21348;DHT22;66030;53.582;9.746;2024-02-16T07:44:20;19.90;69.60
21348;DHT22;66030;53.582;9.746;2024-02-16T07:46:48;20.00;69.50
21348;DHT22;66030;53.582;9.746;2024-02-16T07:49:18;19.90;69.40
21348;DHT22;66030;53.582;9.746;2024-02-16T07:51:47;19.90;69.30
21348;DHT22;66030;53.582;9.746;2024-02-16T07:54:15;20.00;69.30
21348;DHT22;66030;53.582;9.746;2024-02-16T07:56:43;19.90;69.30
21348;DHT22;66030;53.582;9.746;2024-02-16T07:59:11;20.00;69.10
21348;DHT22;66030;53.582;9.746;2024-02-16T08:01:38;20.00;69.10
21348;DHT22;66030;53.582;9.746;2024-02-16T08:04:07;20.00;68.90
21348;DHT22;66030;53.582;9.746;2024-02-16T08:06:36;20.10;68.80
21348;DHT22;66030;53.582;9.746;2024-02-16T08:09:04;20.10;68.30
21348;DHT22;66030;53.582;9.746;2024-02-16T08:11:33;19.90;67.10
21348;DHT22;66030;53.582;9.746;2024-02-16T08:14:01;19.80;68.40
21348;DHT22;66030;53.582;9.746;2024-02-16T08:16:29;19.80;68.60
21348;DHT22;66030;53.582;9.746;2024-02-16T08:18:57;19.80;68.60
21348;DHT22;66030;53.582;9.746;2024-02-16T08:21:25;19.90;68.40
21348;DHT22;66030;53.582;9.746;2024-02-16T08:23:55;19.90;68.30
21348;DHT22;66030;53.582;9.746;2024-02-16T08:26:23;19.90;68.20
21348;DHT22;66030;53.582;9.746;2024-02-16T08:28:50;19.90;68.10
21348;DHT22;66030;53.582;9.746;2024-02-16T08:31:18;19.90;68.00
21348;DHT22;66030;53.582;9.746;2024-02-16T08:33:46;20.00;68.00
21348;DHT22;66030;53.582;9.746;2024-02-16T08:36:15;20.00;67.90
21348;DHT22;66030;53.582;9.746;2024-02-16T08:38:43;20.00;67.90
21348;DHT22;66030;53.582;9.746;2024-02-16T08:41:12;20.00;67.90
21348;DHT22;66030;53.582;9.746;2024-02-16T08:43:40;20.00;67.80
21348;DHT22;66030;53.582;9.746;2024-02-16T08:46:08;20.00;67.70
21348;DHT22;66030;53.582;9.746;2024-02-16T08:48:36;20.00;67.70
21348;DHT22;66030;53.582;9.746;2024-02-16T08:51:05;20.00;67.60
21348;DHT22;66030;53.582;9.746;2024-02-16T08:53:33;20.00;67.50
21348;DHT22;66030;53.582;9.746;2024-02-16T08:56:01;20.00;67.50
21348;DHT22;66030;53.582;9.746;2024-02-16T08:58:30;20.00;67.50
21348;DHT22;66030;53.582;9.746;2024-02-16T09:00:58;20.00;67.50
21348;DHT22;66030;53.582;9.746;2024-02-16T09:03:26;20.00;67.50
21348;DHT22;66030;53.582;9.746;2024-02-16T09:05:54;20.00;67.40
21348;DHT22;66030;53.582;9.746;2024-02-16T09:08:21;20.00;67.40
21348;DHT22;66030;53.582;9.746;2024-02-16T09:10:49;20.00;67.20
21348;DHT22;66030;53.582;9.746;2024-02-16T09:13:17;20.00;67.30
21348;DHT22;66030;53.582;9.746;2024-02-16T09:16:02;20.00;67.30
21348;DHT22;66030;53.582;9.746;2024-02-16T09:18:30;20.00;67.30
21348;DHT22;66030;53.582;9.746;2024-02-16T09:20:59;20.00;67.20
21348;DHT22;66030;53.582;9.746;2024-02-16T09:23:27;20.00;67.20
21348;DHT22;66030;53.582;9.746;2024-02-16T09:25:55;20.00;67.20
21348;DHT22;66030;53.582;9.746;2024-02-16T09:28:23;20.00;67.10
21348;DHT22;66030;53.582;9.746;2024-02-16T09:30:56;20.00;67.20
21348;DHT22;66030;53.582;9.746;2024-02-16T09:33:28;20.00;67.10
21348;DHT22;66030;53.582;9.746;2024-02-16T09:35:56;20.10;67.20
21348;DHT22;66030;53.582;9.746;2024-02-16T09:38:24;20.10;67.30
21348;DHT22;66030;53.582;9.746;2024-02-16T09:40:52;20.10;67.40
21348;DHT22;66030;53.582;9.746;2024-02-16T09:43:24;20.00;67.40
21348;DHT22;66030;53.582;9.746;2024-02-16T09:45:54;20.10;67.70
21348;DHT22;66030;53.582;9.746;2024-02-16T09:48:22;20.10;67.80
21348;DHT22;66030;53.582;9.746;2024-02-16T09:50:53;20.10;68.10
21348;DHT22;66030;53.582;9.746;2024-02-16T09:53:24;20.10;68.30
21348;DHT22;66030;53.582;9.746;2024-02-16T09:55:53;20.10;68.40
21348;DHT22;66030;53.582;9.746;2024-02-16T09:58:21;20.20;68.50
21348;DHT22;66030;53.582;9.746;2024-02-16T10:00:50;20.20;68.60
21348;DHT22;66030;53.582;9.746;2024-02-16T10:03:26;20.20;68.80
21348;DHT22;66030;53.582;9.746;2024-02-16T10:06:06;20.20;68.80
21348;DHT22;66030;53.582;9.746;2024-02-16T10:08:35;20.20;68.80
21348;DHT22;66030;53.582;9.746;2024-02-16T10:11:15;20.20;68.90
21348;DHT22;66030;53.582;9.746;2024-02-16T10:13:43;20.20;68.90
21348;DHT22;66030;53.582;9.746;2024-02-16T10:16:11;20.20;68.90
21348;DHT22;66030;53.582;9.746;2024-02-16T10:18:39;20.20;68.90
21348;DHT22;66030;53.582;9.746;2024-02-16T10:21:08;20.20;68.90
21348;DHT22;66030;53.582;9.746;2024-02-16T10:23:36;20.20;69.00
21348;DHT22;66030;53.582;9.746;2024-02-16T10:26:07;20.20;68.90
21348;DHT22;66030;53.582;9.746;2024-02-16T10:28:35;20.20;69.00
21348;DHT22;66030;53.582;9.746;2024-02-16T10:31:03;20.20;69.10
21348;DHT22;66030;53.582;9.746;2024-02-16T10:33:32;20.20;69.00
21348;DHT22;66030;53.582;9.746;2024-02-16T10:36:00;20.20;69.10
21348;DHT22;66030;53.582;9.746;2024-02-16T10:38:31;20.20;69.00
21348;DHT22;66030;53.582;9.746;2024-02-16T10:40:59;20.20;69.00
21348;DHT22;66030;53.582;9.746;2024-02-16T10:43:29;20.20;69.00
21348;DHT22;66030;53.582;9.746;2024-02-16T10:45:57;20.20;69.00
21348;DHT22;66030;53.582;9.746;2024-02-16T10:48:25;20.30;69.00
21348;DHT22;66030;53.582;9.746;2024-02-16T10:50:54;20.30;68.90
21348;DHT22;66030;53.582;9.746;2024-02-16T10:53:26;20.30;68.80
21348;DHT22;66030;53.582;9.746;2024-02-16T10:56:00;20.30;68.90
21348;DHT22;66030;53.582;9.746;2024-02-16T10:58:28;20.30;69.00
21348;DHT22;66030;53.582;9.746;2024-02-16T11:00:57;20.40;69.00
21348;DHT22;66030;53.582;9.746;2024-02-16T11:03:26;20.40;69.10
21348;DHT22;66030;53.582;9.746;2024-02-16T11:05:55;20.40;69.10
21348;DHT22;66030;53.582;9.746;2024-02-16T11:08:25;20.40;69.10
21348;DHT22;66030;53.582;9.746;2024-02-16T11:10:56;20.40;69.20
21348;DHT22;66030;53.582;9.746;2024-02-16T11:13:27;20.40;69.20
21348;DHT22;66030;53.582;9.746;2024-02-16T11:15:58;20.40;69.20
21348;DHT22;66030;53.582;9.746;2024-02-16T11:18:27;20.40;69.10
21348;DHT22;66030;53.582;9.746;2024-02-16T11:21:00;20.40;69.20
21348;DHT22;66030;53.582;9.746;2024-02-16T11:23:29;20.40;69.10
21348;DHT22;66030;53.582;9.746;2024-02-16T11:26:00;20.40;69.10
21348;DHT22;66030;53.582;9.746;2024-02-16T11:28:31;20.40;69.10
21348;DHT22;66030;53.582;9.746;2024-02-16T11:30:59;20.40;69.00
21348;DHT22;66030;53.582;9.746;2024-02-16T11:33:28;20.40;68.90
21348;DHT22;66030;53.582;9.746;2024-02-16T11:35:57;20.50;68.90
21348;DHT22;66030;53.582;9.746;2024-02-16T11:38:25;20.40;68.80
21348;DHT22;66030;53.582;9.746;2024-02-16T11:40:55;20.50;68.70
21348;DHT22;66030;53.582;9.746;2024-02-16T11:43:24;20.50;68.70
21348;DHT22;66030;53.582;9.746;2024-02-16T11:45:54;20.40;68.70
21348;DHT22;66030;53.582;9.746;2024-02-16T11:48:23;20.40;68.60
21348;DHT22;66030;53.582;9.746;2024-02-16T11:51:00;20.50;68.50
21348;DHT22;66030;53.582;9.746;2024-02-16T11:53:28;20.60;68.20
21348;DHT22;66030;53.582;9.746;2024-02-16T11:55:56;20.70;67.80
21348;DHT22;66030;53.582;9.746;2024-02-16T11:58:24;20.90;67.50
21348;DHT22;66030;53.582;9.746;2024-02-16T12:00:53;20.90;67.10
21348;DHT22;66030;53.582;9.746;2024-02-16T12:03:24;20.90;66.90
21348;DHT22;66030;53.582;9.746;2024-02-16T12:05:55;20.90;67.00
21348;DHT22;66030;53.582;9.746;2024-02-16T12:08:24;20.80;67.20
21348;DHT22;66030;53.582;9.746;2024-02-16T12:10:59;20.80;67.30
21348;DHT22;66030;53.582;9.746;2024-02-16T12:13:27;20.80;67.40
21348;DHT22;66030;53.582;9.746;2024-02-16T12:15:57;20.70;67.40
21348;DHT22;66030;53.582;9.746;2024-02-16T12:18:25;20.80;67.20
21348;DHT22;66030;53.582;9.746;2024-02-16T12:20:58;20.80;67.10
21348;DHT22;66030;53.582;9.746;2024-02-16T12:23:27;20.90;66.90
21348;DHT22;66030;53.582;9.746;2024-02-16T12:25:56;20.80;66.90
21348;DHT22;66030;53.582;9.746;2024-02-16T12:28:25;20.80;67.00
21348;DHT22;66030;53.582;9.746;2024-02-16T12:30:54;20.80;67.00
21348;DHT22;66030;53.582;9.746;2024-02-16T12:33:27;20.80;67.10
21348;DHT22;66030;53.582;9.746;2024-02-16T12:35:55;20.70;65.80
21348;DHT22;66030;53.582;9.746;2024-02-16T12:38:23;20.60;66.80
21348;DHT22;66030;53.582;9.746;2024-02-16T12:40:51;20.60;67.10
21348;DHT22;66030;53.582;9.746;2024-02-16T12:43:19;20.60;67.10
21348;DHT22;66030;53.582;9.746;2024-02-16T12:45:47;20.60;67.00
21348;DHT22;66030;53.582;9.746;2024-02-16T12:48:15;20.60;66.90
21348;DHT22;66030;53.582;9.746;2024-02-16T12:50:44;20.60;66.90
21348;DHT22;66030;53.582;9.746;2024-02-16T12:53:13;20.60;66.90
21348;DHT22;66030;53.582;9.746;2024-02-16T12:55:42;20.60;66.80
21348;DHT22;66030;53.582;9.746;2024-02-16T12:58:10;20.60;66.80
21348;DHT22;66030;53.582;9.746;2024-02-16T13:00:39;20.50;66.80
21348;DHT22;66030;53.582;9.746;2024-02-16T13:03:07;20.50;66.70
21348;DHT22;66030;53.582;9.746;2024-02-16T13:05:35;20.50;66.60
21348;DHT22;66030;53.582;9.746;2024-02-16T13:08:06;20.50;66.70
21348;DHT22;66030;53.582;9.746;2024-02-16T13:10:34;20.50;66.60
21348;DHT22;66030;53.582;9.746;2024-02-16T13:13:01;20.60;66.60
21348;DHT22;66030;53.582;9.746;2024-02-16T13:15:29;20.50;66.70
21348;DHT22;66030;53.582;9.746;2024-02-16T13:17:57;20.50;66.60
21348;DHT22;66030;53.582;9.746;2024-02-16T13:20:25;20.50;66.60
21348;DHT22;66030;53.582;9.746;2024-02-16T13:22:53;20.50;66.60
21348;DHT22;66030;53.582;9.746;2024-02-16T13:25:22;20.50;66.60
21348;DHT22;66030;53.582;9.746;2024-02-16T13:27:50;20.60;66.60
21348;DHT22;66030;53.582;9.746;2024-02-16T13:30:18;20.60;66.50
21348;DHT22;66030;53.582;9.746;2024-02-16T13:32:46;20.50;66.40
21348;DHT22;66030;53.582;9.746;2024-02-16T13:35:14;20.60;66.50
21348;DHT22;66030;53.582;9.746;2024-02-16T13:37:47;20.60;66.50
21348;DHT22;66030;53.582;9.746;2024-02-16T13:40:15;20.50;66.50
21348;DHT22;66030;53.582;9.746;2024-02-16T13:42:45;20.50;66.50
21348;DHT22;66030;53.582;9.746;2024-02-16T13:45:13;20.50;66.50
21348;DHT22;66030;53.582;9.746;2024-02-16T13:47:41;20.50;66.40
21348;DHT22;66030;53.582;9.746;2024-02-16T13:50:10;20.50;66.50
21348;DHT22;66030;53.582;9.746;2024-02-16T13:52:38;20.50;66.40
21348;DHT22;66030;53.582;9.746;2024-02-16T13:55:07;20.50;66.50
21348;DHT22;66030;53.582;9.746;2024-02-16T13:57:35;20.50;66.50
21348;DHT22;66030;53.582;9.746;2024-02-16T14:00:08;20.50;66.40
21348;DHT22;66030;53.582;9.746;2024-02-16T14:02:36;20.50;66.30
21348;DHT22;66030;53.582;9.746;2024-02-16T14:05:04;20.50;66.40
21348;DHT22;66030;53.582;9.746;2024-02-16T14:07:32;20.50;66.40
21348;DHT22;66030;53.582;9.746;2024-02-16T14:10:12;20.50;66.40
21348;DHT22;66030;53.582;9.746;2024-02-16T14:12:40;20.50;66.40
21348;DHT22;66030;53.582;9.746;2024-02-16T14:15:10;20.50;66.40
21348;DHT22;66030;53.582;9.746;2024-02-16T14:17:42;20.50;66.50
21348;DHT22;66030;53.582;9.746;2024-02-16T14:20:11;20.50;66.40
21348;DHT22;66030;53.582;9.746;2024-02-16T14:22:39;20.50;66.50
21348;DHT22;66030;53.582;9.746;2024-02-16T14:25:07;20.50;66.40
21348;DHT22;66030;53.582;9.746;2024-02-16T14:27:37;20.50;66.40
21348;DHT22;66030;53.582;9.746;2024-02-16T14:30:06;20.50;66.50
21348;DHT22;66030;53.582;9.746;2024-02-16T14:32:36;20.50;66.40
21348;DHT22;66030;53.582;9.746;2024-02-16T14:35:04;20.50;66.40
21348;DHT22;66030;53.582;9.746;2024-02-16T14:37:33;20.50;66.40
21348;DHT22;66030;53.582;9.746;2024-02-16T14:40:01;20.50;66.40
21348;DHT22;66030;53.582;9.746;2024-02-16T14:42:30;20.50;66.50
21348;DHT22;66030;53.582;9.746;2024-02-16T14:44:58;20.50;66.50
21348;DHT22;66030;53.582;9.746;2024-02-16T14:47:26;20.50;66.40
21348;DHT22;66030;53.582;9.746;2024-02-16T14:49:55;20.50;66.40
21348;DHT22;66030;53.582;9.746;2024-02-16T14:52:23;20.50;66.40
21348;DHT22;66030;53.582;9.746;2024-02-16T14:54:51;20.50;66.40
21348;DHT22;66030;53.582;9.746;2024-02-16T14:57:19;20.40;66.40
21348;DHT22;66030;53.582;9.746;2024-02-16T14:59:49;20.50;66.40
21348;DHT22;66030;53.582;9.746;2024-02-16T15:02:18;20.50;66.40
21348;DHT22;66030;53.582;9.746;2024-02-16T15:04:47;20.50;66.30
21348;DHT22;66030;53.582;9.746;2024-02-16T15:07:18;20.60;66.30
21348;DHT22;66030;53.582;9.746;2024-02-16T15:09:45;20.60;66.20
21348;DHT22;66030;53.582;9.746;2024-02-16T15:12:13;20.60;66.20
21348;DHT22;66030;53.582;9.746;2024-02-16T15:14:45;20.60;66.20
21348;DHT22;66030;53.582;9.746;2024-02-16T15:17:14;20.60;66.10
21348;DHT22;66030;53.582;9.746;2024-02-16T15:19:42;20.60;66.10
21348;DHT22;66030;53.582;9.746;2024-02-16T15:22:10;20.60;66.10
21348;DHT22;66030;53.582;9.746;2024-02-16T15:24:39;20.60;66.00
21348;DHT22;66030;53.582;9.746;2024-02-16T15:27:07;20.60;66.00
21348;DHT22;66030;53.582;9.746;2024-02-16T15:29:35;20.60;66.00
21348;DHT22;66030;53.582;9.746;2024-02-16T15:32:04;20.60;66.00
21348;DHT22;66030;53.582;9.746;2024-02-16T15:34:31;20.60;66.00
21348;DHT22;66030;53.582;9.746;2024-02-16T15:36:59;20.60;65.90
21348;DHT22;66030;53.582;9.746;2024-02-16T15:39:28;20.60;65.90